sensor_id;sensor_type;location;lat;lon;timestamp;pressure;altitude;pressure_sealevel;temperature;humidity
7986;BME280;4038;42.612;23.066;2023-07-13T00:01:17;93400.66;;;38.95;24.73
7986;BME280;4038;42.612;23.066;2023-07-13T00:03:42;93393.84;;;36.25;28.43
7986;BME280;4038;42.612;23.066;2023-07-13T00:06:08;93391.66;;;36.43;27.98
7986;BME280;4038;42.612;23.066;2023-07-13T00:08:34;93396.59;;;37.06;27.01
7986;BME280;4038;42.612;23.066;2023-07-13T00:11:03;93395.94;;;37.77;26.68
7986;BME280;4038;42.612;23.066;2023-07-13T00:13:29;93390.19;;;36.42;27.99
7986;BME280;4038;42.612;23.066;2023-07-13T00:15:56;93392.50;;;36.48;28.20
7986;BME280;4038;42.612;23.066;2023-07-13T00:18:22;93384.06;;;38.64;25.26
7986;BME280;4038;42.612;23.066;2023-07-13T00:20:47;93391.72;;;38.55;25.81
7986;BME280;4038;42.612;23.066;2023-07-13T00:23:14;93385.72;;;39.01;24.74
7986;BME280;4038;42.612;23.066;2023-07-13T00:25:39;93385.47;;;37.38;26.50
7986;BME280;4038;42.612;23.066;2023-07-13T00:28:05;93384.22;;;35.94;28.68
7986;BME280;4038;42.612;23.066;2023-07-13T00:30:30;93378.88;;;35.47;28.86
7986;BME280;4038;42.612;23.066;2023-07-13T00:32:56;93384.63;;;36.68;27.81
7986;BME280;4038;42.612;23.066;2023-07-13T00:35:21;93380.38;;;38.34;25.34
7986;BME280;4038;42.612;23.066;2023-07-13T00:37:47;93382.91;;;37.24;26.61
7986;BME280;4038;42.612;23.066;2023-07-13T00:40:14;93378.13;;;39.14;25.63
7986;BME280;4038;42.612;23.066;2023-07-13T00:42:40;93376.66;;;38.55;25.70
7986;BME280;4038;42.612;23.066;2023-07-13T00:47:41;93379.66;;;38.33;25.81
7986;BME280;4038;42.612;23.066;2023-07-13T00:50:09;93378.28;;;37.84;26.34
7986;BME280;4038;42.612;23.066;2023-07-13T00:52:38;93381.81;;;37.83;26.11
7986;BME280;4038;42.612;23.066;2023-07-13T00:55:05;93382.06;;;37.43;26.93
7986;BME280;4038;42.612;23.066;2023-07-13T00:57:31;93376.47;;;38.21;26.10
7986;BME280;4038;42.612;23.066;2023-07-13T00:59:59;93378.78;;;39.40;25.07
7986;BME280;4038;42.612;23.066;2023-07-13T01:02:33;93367.91;;;38.49;25.78
7986;BME280;4038;42.612;23.066;2023-07-13T01:04:58;93376.13;;;38.09;25.75
7986;BME280;4038;42.612;23.066;2023-07-13T01:07:24;93384.66;;;38.33;25.85
7986;BME280;4038;42.612;23.066;2023-07-13T01:09:50;93374.25;;;38.45;25.30
7986;BME280;4038;42.612;23.066;2023-07-13T01:12:15;93380.81;;;37.98;26.19
7986;BME280;4038;42.612;23.066;2023-07-13T01:14:41;93390.22;;;36.86;27.32
7986;BME280;4038;42.612;23.066;2023-07-13T01:17:09;93374.88;;;38.70;25.74
7986;BME280;4038;42.612;23.066;2023-07-13T01:19:43;93391.13;;;38.07;26.18
7986;BME280;4038;42.612;23.066;2023-07-13T01:22:14;93383.38;;;38.12;26.05
7986;BME280;4038;42.612;23.066;2023-07-13T01:24:42;93377.81;;;37.44;27.16
7986;BME280;4038;42.612;23.066;2023-07-13T01:27:10;93369.84;;;36.95;27.78
7986;BME280;4038;42.612;23.066;2023-07-13T01:29:38;93373.66;;;37.04;27.62
7986;BME280;4038;42.612;23.066;2023-07-13T01:32:23;93374.94;;;37.44;26.92
7986;BME280;4038;42.612;23.066;2023-07-13T01:34:53;93370.50;;;37.39;27.17
7986;BME280;4038;42.612;23.066;2023-07-13T01:37:22;93361.47;;;36.80;27.41
7986;BME280;4038;42.612;23.066;2023-07-13T01:39:48;93363.56;;;35.76;28.44
7986;BME280;4038;42.612;23.066;2023-07-13T01:42:14;93363.50;;;36.99;27.69
7986;BME280;4038;42.612;23.066;2023-07-13T01:44:40;93355.00;;;36.57;27.99
7986;BME280;4038;42.612;23.066;2023-07-13T01:47:05;93358.13;;;36.04;28.70
7986;BME280;4038;42.612;23.066;2023-07-13T01:49:30;93364.78;;;36.72;27.64
7986;BME280;4038;42.612;23.066;2023-07-13T01:51:56;93361.88;;;37.37;26.72
7986;BME280;4038;42.612;23.066;2023-07-13T01:54:21;93358.75;;;37.77;26.49
7986;BME280;4038;42.612;23.066;2023-07-13T01:56:47;93367.78;;;38.17;25.90
7986;BME280;4038;42.612;23.066;2023-07-13T01:59:12;93365.00;;;38.21;25.86
7986;BME280;4038;42.612;23.066;2023-07-13T02:01:38;93360.84;;;39.10;24.86
7986;BME280;4038;42.612;23.066;2023-07-13T02:04:03;93371.09;;;39.19;24.70
7986;BME280;4038;42.612;23.066;2023-07-13T02:06:29;93373.31;;;37.61;26.10
7986;BME280;4038;42.612;23.066;2023-07-13T02:08:54;93367.03;;;36.75;27.44
7986;BME280;4038;42.612;23.066;2023-07-13T02:11:20;93362.00;;;36.32;28.04
7986;BME280;4038;42.612;23.066;2023-07-13T02:13:45;93363.75;;;36.63;27.72
7986;BME280;4038;42.612;23.066;2023-07-13T02:16:11;93366.41;;;37.46;26.90
7986;BME280;4038;42.612;23.066;2023-07-13T02:18:36;93359.03;;;37.87;26.45
7986;BME280;4038;42.612;23.066;2023-07-13T02:21:02;93362.31;;;38.01;26.14
7986;BME280;4038;42.612;23.066;2023-07-13T02:23:28;93374.59;;;37.80;26.41
7986;BME280;4038;42.612;23.066;2023-07-13T02:25:57;93371.47;;;38.75;25.24
7986;BME280;4038;42.612;23.066;2023-07-13T02:28:23;93373.88;;;38.05;26.12
7986;BME280;4038;42.612;23.066;2023-07-13T02:30:48;93365.59;;;36.13;28.41
7986;BME280;4038;42.612;23.066;2023-07-13T02:33:14;93364.00;;;36.28;28.28
7986;BME280;4038;42.612;23.066;2023-07-13T02:35:39;93364.66;;;36.26;28.00
7986;BME280;4038;42.612;23.066;2023-07-13T02:38:05;93362.97;;;34.69;30.33
7986;BME280;4038;42.612;23.066;2023-07-13T02:40:30;93355.25;;;36.02;28.72
7986;BME280;4038;42.612;23.066;2023-07-13T02:42:58;93362.38;;;35.44;29.04
7986;BME280;4038;42.612;23.066;2023-07-13T02:45:24;93368.78;;;35.44;28.82
7986;BME280;4038;42.612;23.066;2023-07-13T02:47:49;93373.44;;;34.14;30.86
7986;BME280;4038;42.612;23.066;2023-07-13T02:50:15;93361.50;;;34.01;31.38
7986;BME280;4038;42.612;23.066;2023-07-13T02:52:40;93375.09;;;34.70;30.53
7986;BME280;4038;42.612;23.066;2023-07-13T02:55:06;93369.72;;;35.88;28.98
7986;BME280;4038;42.612;23.066;2023-07-13T02:57:31;93372.56;;;37.37;27.08
7986;BME280;4038;42.612;23.066;2023-07-13T02:59:58;93363.22;;;37.58;26.63
7986;BME280;4038;42.612;23.066;2023-07-13T03:02:24;93382.56;;;37.36;26.33
7986;BME280;4038;42.612;23.066;2023-07-13T03:04:50;93381.59;;;36.84;27.58
7986;BME280;4038;42.612;23.066;2023-07-13T03:07:15;93373.97;;;35.87;28.82
7986;BME280;4038;42.612;23.066;2023-07-13T03:09:41;93384.91;;;36.98;27.37
7986;BME280;4038;42.612;23.066;2023-07-13T03:12:06;93384.50;;;36.64;28.44
7986;BME280;4038;42.612;23.066;2023-07-13T03:14:32;93380.56;;;35.72;29.37
7986;BME280;4038;42.612;23.066;2023-07-13T03:16:57;93378.66;;;36.18;28.74
7986;BME280;4038;42.612;23.066;2023-07-13T03:19:23;93373.38;;;35.71;29.40
7986;BME280;4038;42.612;23.066;2023-07-13T03:21:48;93381.59;;;37.51;27.12
7986;BME280;4038;42.612;23.066;2023-07-13T03:24:14;93382.13;;;36.17;28.41
7986;BME280;4038;42.612;23.066;2023-07-13T03:26:40;93380.22;;;34.73;30.73
7986;BME280;4038;42.612;23.066;2023-07-13T03:29:05;93380.91;;;34.38;31.08
7986;BME280;4038;42.612;23.066;2023-07-13T03:31:33;93386.19;;;34.97;30.94
7986;BME280;4038;42.612;23.066;2023-07-13T03:33:59;93383.88;;;35.11;30.32
7986;BME280;4038;42.612;23.066;2023-07-13T03:36:27;93384.84;;;35.36;30.60
7986;BME280;4038;42.612;23.066;2023-07-13T03:38:56;93385.94;;;35.64;30.23
7986;BME280;4038;42.612;23.066;2023-07-13T03:41:22;93382.38;;;35.46;30.32
7986;BME280;4038;42.612;23.066;2023-07-13T03:43:49;93390.16;;;35.26;30.47
7986;BME280;4038;42.612;23.066;2023-07-13T03:46:15;93387.56;;;36.92;28.44
7986;BME280;4038;42.612;23.066;2023-07-13T03:48:44;93390.75;;;36.58;28.75
7986;BME280;4038;42.612;23.066;2023-07-13T03:51:12;93382.00;;;36.96;28.24
7986;BME280;4038;42.612;23.066;2023-07-13T03:53:41;93383.13;;;37.32;27.83
7986;BME280;4038;42.612;23.066;2023-07-13T03:56:07;93387.28;;;36.62;28.85
7986;BME280;4038;42.612;23.066;2023-07-13T03:58:35;93386.09;;;37.82;27.44
7986;BME280;4038;42.612;23.066;2023-07-13T04:01:02;93387.78;;;36.15;29.01
7986;BME280;4038;42.612;23.066;2023-07-13T04:03:28;93387.53;;;35.69;29.83
7986;BME280;4038;42.612;23.066;2023-07-13T04:05:56;93387.44;;;36.88;28.54
7986;BME280;4038;42.612;23.066;2023-07-13T04:08:30;93388.34;;;36.51;29.09
7986;BME280;4038;42.612;23.066;2023-07-13T04:10:56;93384.41;;;37.73;27.32
7986;BME280;4038;42.612;23.066;2023-07-13T04:13:23;93384.81;;;38.39;26.61
7986;BME280;4038;42.612;23.066;2023-07-13T04:15:48;93387.09;;;38.16;26.45
7986;BME280;4038;42.612;23.066;2023-07-13T04:18:14;93377.44;;;37.56;27.38
7986;BME280;4038;42.612;23.066;2023-07-13T04:20:39;93373.72;;;37.75;27.09
7986;BME280;4038;42.612;23.066;2023-07-13T04:23:05;93391.84;;;38.34;26.37
7986;BME280;4038;42.612;23.066;2023-07-13T04:25:30;93385.00;;;39.00;26.18
7986;BME280;4038;42.612;23.066;2023-07-13T04:27:56;93386.75;;;37.57;27.69
7986;BME280;4038;42.612;23.066;2023-07-13T04:30:22;93377.69;;;36.53;29.26
7986;BME280;4038;42.612;23.066;2023-07-13T04:32:48;93389.22;;;36.99;28.57
7986;BME280;4038;42.612;23.066;2023-07-13T04:35:13;93389.63;;;36.89;28.66
7986;BME280;4038;42.612;23.066;2023-07-13T04:37:40;93394.22;;;35.76;29.92
7986;BME280;4038;42.612;23.066;2023-07-13T04:40:06;93395.50;;;37.61;27.48
7986;BME280;4038;42.612;23.066;2023-07-13T04:42:31;93397.75;;;37.90;27.67
7986;BME280;4038;42.612;23.066;2023-07-13T04:44:57;93393.13;;;35.85;29.89
7986;BME280;4038;42.612;23.066;2023-07-13T04:47:23;93407.78;;;37.20;29.00
7986;BME280;4038;42.612;23.066;2023-07-13T04:49:48;93407.81;;;36.56;29.77
7986;BME280;4038;42.612;23.066;2023-07-13T04:52:13;93406.31;;;35.94;31.15
7986;BME280;4038;42.612;23.066;2023-07-13T04:54:39;93420.81;;;37.03;29.74
7986;BME280;4038;42.612;23.066;2023-07-13T04:57:05;93423.72;;;37.72;29.25
7986;BME280;4038;42.612;23.066;2023-07-13T04:59:34;93420.09;;;36.61;30.86
7986;BME280;4038;42.612;23.066;2023-07-13T05:01:59;93416.38;;;38.15;28.23
7986;BME280;4038;42.612;23.066;2023-07-13T05:04:24;93417.00;;;38.11;28.76
7986;BME280;4038;42.612;23.066;2023-07-13T05:06:50;93414.00;;;38.33;27.81
7986;BME280;4038;42.612;23.066;2023-07-13T05:09:15;93417.69;;;38.10;28.05
7986;BME280;4038;42.612;23.066;2023-07-13T05:11:41;93420.13;;;37.26;29.34
7986;BME280;4038;42.612;23.066;2023-07-13T05:14:06;93423.53;;;38.40;27.95
7986;BME280;4038;42.612;23.066;2023-07-13T05:16:32;93427.72;;;36.96;29.79
7986;BME280;4038;42.612;23.066;2023-07-13T05:18:57;93424.31;;;38.16;28.77
7986;BME280;4038;42.612;23.066;2023-07-13T05:21:26;93423.06;;;37.28;30.27
7986;BME280;4038;42.612;23.066;2023-07-13T05:23:51;93417.69;;;36.95;30.43
7986;BME280;4038;42.612;23.066;2023-07-13T05:26:17;93437.06;;;36.35;31.23
7986;BME280;4038;42.612;23.066;2023-07-13T05:28:42;93437.72;;;37.86;29.30
7986;BME280;4038;42.612;23.066;2023-07-13T05:31:08;93428.81;;;38.00;29.27
7986;BME280;4038;42.612;23.066;2023-07-13T05:33:34;93441.31;;;37.41;29.79
7986;BME280;4038;42.612;23.066;2023-07-13T05:35:59;93443.91;;;38.02;29.06
7986;BME280;4038;42.612;23.066;2023-07-13T05:38:26;93441.47;;;37.69;29.27
7986;BME280;4038;42.612;23.066;2023-07-13T05:40:53;93439.38;;;38.96;27.91
7986;BME280;4038;42.612;23.066;2023-07-13T05:43:19;93448.91;;;38.51;28.25
7986;BME280;4038;42.612;23.066;2023-07-13T05:45:48;93437.66;;;39.43;27.48
7986;BME280;4038;42.612;23.066;2023-07-13T05:48:14;93447.72;;;40.08;26.84
7986;BME280;4038;42.612;23.066;2023-07-13T05:50:40;93446.53;;;40.19;26.53
7986;BME280;4038;42.612;23.066;2023-07-13T05:53:06;93439.38;;;40.94;25.21
7986;BME280;4038;42.612;23.066;2023-07-13T05:55:32;93438.94;;;41.10;25.20
7986;BME280;4038;42.612;23.066;2023-07-13T05:57:59;93428.47;;;42.27;24.09
7986;BME280;4038;42.612;23.066;2023-07-13T06:00:25;93426.38;;;42.98;23.28
7986;BME280;4038;42.612;23.066;2023-07-13T06:02:51;93421.16;;;43.60;22.75
7986;BME280;4038;42.612;23.066;2023-07-13T06:05:17;93429.94;;;43.73;22.52
7986;BME280;4038;42.612;23.066;2023-07-13T06:07:42;93427.13;;;41.36;24.66
7986;BME280;4038;42.612;23.066;2023-07-13T06:10:08;93421.28;;;41.29;24.85
7986;BME280;4038;42.612;23.066;2023-07-13T06:12:33;93418.03;;;39.95;26.31
7986;BME280;4038;42.612;23.066;2023-07-13T06:14:59;93422.38;;;42.02;24.79
7986;BME280;4038;42.612;23.066;2023-07-13T06:17:24;93423.84;;;43.34;23.44
7986;BME280;4038;42.612;23.066;2023-07-13T06:19:50;93422.66;;;42.83;24.14
7986;BME280;4038;42.612;23.066;2023-07-13T06:22:15;93419.97;;;44.02;22.82
7986;BME280;4038;42.612;23.066;2023-07-13T06:24:41;93427.63;;;45.75;21.04
7986;BME280;4038;42.612;23.066;2023-07-13T06:27:06;93424.00;;;45.40;22.19
7986;BME280;4038;42.612;23.066;2023-07-13T06:29:32;93421.78;;;44.98;22.39
7986;BME280;4038;42.612;23.066;2023-07-13T06:31:58;93418.91;;;46.04;21.48
7986;BME280;4038;42.612;23.066;2023-07-13T06:34:23;93425.41;;;49.37;18.16
7986;BME280;4038;42.612;23.066;2023-07-13T06:36:49;93419.25;;;46.99;20.22
7986;BME280;4038;42.612;23.066;2023-07-13T06:39:14;93415.63;;;47.89;19.52
7986;BME280;4038;42.612;23.066;2023-07-13T06:41:40;93415.63;;;46.99;20.33
7986;BME280;4038;42.612;23.066;2023-07-13T06:44:05;93414.50;;;49.37;18.38
7986;BME280;4038;42.612;23.066;2023-07-13T06:46:32;93412.84;;;51.02;17.27
7986;BME280;4038;42.612;23.066;2023-07-13T06:48:57;93417.38;;;51.59;16.65
7986;BME280;4038;42.612;23.066;2023-07-13T06:51:22;93415.91;;;52.70;15.31
7986;BME280;4038;42.612;23.066;2023-07-13T06:53:50;93409.97;;;54.52;14.26
7986;BME280;4038;42.612;23.066;2023-07-13T06:56:16;93404.88;;;52.45;15.69
7986;BME280;4038;42.612;23.066;2023-07-13T06:58:41;93398.88;;;55.13;14.07
7986;BME280;4038;42.612;23.066;2023-07-13T07:01:06;93403.16;;;55.16;13.88
7986;BME280;4038;42.612;23.066;2023-07-13T07:03:32;93407.78;;;52.20;16.21
7986;BME280;4038;42.612;23.066;2023-07-13T07:06:13;93405.03;;;55.05;14.02
7986;BME280;4038;42.612;23.066;2023-07-13T07:08:39;93401.69;;;50.78;16.85
7986;BME280;4038;42.612;23.066;2023-07-13T07:11:05;93397.66;;;50.26;17.28
7986;BME280;4038;42.612;23.066;2023-07-13T07:13:31;93400.78;;;49.75;18.04
7986;BME280;4038;42.612;23.066;2023-07-13T07:15:56;93385.81;;;49.56;17.84
7986;BME280;4038;42.612;23.066;2023-07-13T07:18:22;93396.47;;;50.83;16.95
7986;BME280;4038;42.612;23.066;2023-07-13T07:20:49;93400.75;;;50.55;17.21
7986;BME280;4038;42.612;23.066;2023-07-13T07:23:14;93400.25;;;52.01;16.22
7986;BME280;4038;42.612;23.066;2023-07-13T07:25:39;93406.97;;;52.49;15.95
7986;BME280;4038;42.612;23.066;2023-07-13T07:28:10;93407.09;;;54.08;14.89
7986;BME280;4038;42.612;23.066;2023-07-13T07:30:35;93394.19;;;55.01;13.69
7986;BME280;4038;42.612;23.066;2023-07-13T07:33:01;93395.59;;;54.83;13.54
7986;BME280;4038;42.612;23.066;2023-07-13T07:35:26;93396.41;;;56.09;12.73
7986;BME280;4038;42.612;23.066;2023-07-13T07:37:52;93389.03;;;56.10;12.69
7986;BME280;4038;42.612;23.066;2023-07-13T07:40:18;93379.91;;;55.10;13.29
7986;BME280;4038;42.612;23.066;2023-07-13T07:42:43;93371.59;;;54.58;14.25
7986;BME280;4038;42.612;23.066;2023-07-13T07:45:09;93372.09;;;52.41;16.11
7986;BME280;4038;42.612;23.066;2023-07-13T07:47:37;93377.56;;;54.35;14.04
7986;BME280;4038;42.612;23.066;2023-07-13T07:50:02;93371.84;;;52.24;15.46
7986;BME280;4038;42.612;23.066;2023-07-13T07:52:28;93377.13;;;53.85;14.08
7986;BME280;4038;42.612;23.066;2023-07-13T07:54:54;93367.09;;;56.40;12.33
7986;BME280;4038;42.612;23.066;2023-07-13T07:57:19;93378.50;;;57.43;11.81
7986;BME280;4038;42.612;23.066;2023-07-13T07:59:45;93366.19;;;58.26;10.64
7986;BME280;4038;42.612;23.066;2023-07-13T08:02:10;93360.28;;;58.41;10.70
7986;BME280;4038;42.612;23.066;2023-07-13T08:04:36;93355.28;;;59.32;10.31
7986;BME280;4038;42.612;23.066;2023-07-13T08:07:02;93356.56;;;56.46;12.12
7986;BME280;4038;42.612;23.066;2023-07-13T08:09:28;93352.00;;;59.89;10.40
7986;BME280;4038;42.612;23.066;2023-07-13T08:11:54;93345.00;;;58.91;10.37
7986;BME280;4038;42.612;23.066;2023-07-13T08:14:20;93342.84;;;60.55;10.17
7986;BME280;4038;42.612;23.066;2023-07-13T08:16:45;93335.06;;;61.87;8.72
7986;BME280;4038;42.612;23.066;2023-07-13T08:19:11;93339.78;;;58.79;9.07
7986;BME280;4038;42.612;23.066;2023-07-13T08:21:36;93334.31;;;54.73;11.30
7986;BME280;4038;42.612;23.066;2023-07-13T08:24:02;93326.84;;;51.57;12.98
7986;BME280;4038;42.612;23.066;2023-07-13T08:26:28;93338.25;;;51.67;11.75
7986;BME280;4038;42.612;23.066;2023-07-13T08:28:53;93337.00;;;51.00;12.40
7986;BME280;4038;42.612;23.066;2023-07-13T08:31:19;93334.88;;;51.85;11.60
7986;BME280;4038;42.612;23.066;2023-07-13T08:33:44;93331.72;;;52.70;11.43
7986;BME280;4038;42.612;23.066;2023-07-13T08:36:10;93340.91;;;52.58;12.29
7986;BME280;4038;42.612;23.066;2023-07-13T08:38:35;93322.41;;;53.98;11.79
7986;BME280;4038;42.612;23.066;2023-07-13T08:41:10;93319.06;;;53.46;11.34
7986;BME280;4038;42.612;23.066;2023-07-13T08:43:37;93315.25;;;50.27;14.83
7986;BME280;4038;42.612;23.066;2023-07-13T08:46:18;93317.44;;;51.24;13.37
7986;BME280;4038;42.612;23.066;2023-07-13T08:48:45;93329.91;;;50.91;13.23
7986;BME280;4038;42.612;23.066;2023-07-13T08:53:46;93322.84;;;51.42;13.15
7986;BME280;4038;42.612;23.066;2023-07-13T08:56:18;93327.22;;;50.46;13.77
7986;BME280;4038;42.612;23.066;2023-07-13T08:58:49;93334.34;;;50.88;13.82
7986;BME280;4038;42.612;23.066;2023-07-13T09:01:24;93331.41;;;53.92;11.97
7986;BME280;4038;42.612;23.066;2023-07-13T09:04:05;93344.38;;;51.86;13.42
7986;BME280;4038;42.612;23.066;2023-07-13T09:06:39;93346.13;;;53.69;12.57
7986;BME280;4038;42.612;23.066;2023-07-13T09:09:26;93345.75;;;50.67;12.23
7986;BME280;4038;42.612;23.066;2023-07-13T09:12:25;93349.25;;;50.39;13.36
7986;BME280;4038;42.612;23.066;2023-07-13T09:14:54;93352.16;;;52.22;11.68
7986;BME280;4038;42.612;23.066;2023-07-13T09:17:39;93348.94;;;54.36;9.46
7986;BME280;4038;42.612;23.066;2023-07-13T09:22:37;93358.88;;;56.26;9.16
7986;BME280;4038;42.612;23.066;2023-07-13T09:25:26;93368.75;;;58.62;8.01
7986;BME280;4038;42.612;23.066;2023-07-13T09:28:00;93368.88;;;54.52;10.60
7986;BME280;4038;42.612;23.066;2023-07-13T09:30:36;93365.38;;;56.46;9.80
7986;BME280;4038;42.612;23.066;2023-07-13T09:33:03;93369.19;;;52.65;11.23
7986;BME280;4038;42.612;23.066;2023-07-13T09:35:29;93368.00;;;55.14;10.27
7986;BME280;4038;42.612;23.066;2023-07-13T09:38:03;93360.53;;;57.03;9.66
7986;BME280;4038;42.612;23.066;2023-07-13T09:43:34;93353.06;;;55.91;11.18
7986;BME280;4038;42.612;23.066;2023-07-13T09:46:00;93346.69;;;55.32;11.83
7986;BME280;4038;42.612;23.066;2023-07-13T09:48:34;93353.81;;;56.08;10.21
7986;BME280;4038;42.612;23.066;2023-07-13T09:51:07;93342.84;;;55.54;10.58
7986;BME280;4038;42.612;23.066;2023-07-13T09:53:38;93343.34;;;55.05;10.83
7986;BME280;4038;42.612;23.066;2023-07-13T09:56:19;93334.63;;;55.40;10.70
7986;BME280;4038;42.612;23.066;2023-07-13T09:58:44;93331.72;;;55.57;10.46
7986;BME280;4038;42.612;23.066;2023-07-13T10:01:10;93334.44;;;59.22;8.66
7986;BME280;4038;42.612;23.066;2023-07-13T10:03:39;93331.41;;;56.49;10.07
7986;BME280;4038;42.612;23.066;2023-07-13T10:08:37;93314.22;;;56.38;10.36
7986;BME280;4038;42.612;23.066;2023-07-13T10:11:18;93315.63;;;53.39;11.06
7986;BME280;4038;42.612;23.066;2023-07-13T10:14:17;93318.03;;;57.44;9.50
7986;BME280;4038;42.612;23.066;2023-07-13T10:16:45;93315.88;;;58.71;9.15
7986;BME280;4038;42.612;23.066;2023-07-13T10:19:26;93313.84;;;54.71;10.92
7986;BME280;4038;42.612;23.066;2023-07-13T10:24:39;93311.00;;;57.37;9.80
7986;BME280;4038;42.612;23.066;2023-07-13T10:29:36;93309.81;;;57.32;10.08
7986;BME280;4038;42.612;23.066;2023-07-13T10:32:09;93296.72;;;54.78;11.63
7986;BME280;4038;42.612;23.066;2023-07-13T10:34:36;93293.78;;;58.00;9.21
7986;BME280;4038;42.612;23.066;2023-07-13T10:37:02;93291.34;;;55.39;10.87
7986;BME280;4038;42.612;23.066;2023-07-13T10:39:30;93294.72;;;57.08;9.88
7986;BME280;4038;42.612;23.066;2023-07-13T10:41:59;93285.16;;;55.97;10.77
7986;BME280;4038;42.612;23.066;2023-07-13T10:44:28;93286.34;;;56.52;9.78
7986;BME280;4038;42.612;23.066;2023-07-13T10:47:03;93271.34;;;55.24;10.33
7986;BME280;4038;42.612;23.066;2023-07-13T10:49:32;93283.78;;;53.92;10.92
7986;BME280;4038;42.612;23.066;2023-07-13T10:52:00;93276.59;;;55.22;10.61
7986;BME280;4038;42.612;23.066;2023-07-13T10:54:34;93281.25;;;53.38;11.21
7986;BME280;4038;42.612;23.066;2023-07-13T10:59:44;93269.06;;;53.09;12.26
7986;BME280;4038;42.612;23.066;2023-07-13T11:02:23;93261.97;;;54.66;10.89
7986;BME280;4038;42.612;23.066;2023-07-13T11:04:52;93267.50;;;55.97;10.35
7986;BME280;4038;42.612;23.066;2023-07-13T11:07:29;93255.72;;;56.14;10.61
7986;BME280;4038;42.612;23.066;2023-07-13T11:09:57;93253.97;;;54.45;10.98
7986;BME280;4038;42.612;23.066;2023-07-13T11:17:36;93242.31;;;52.98;11.62
7986;BME280;4038;42.612;23.066;2023-07-13T11:25:31;93224.72;;;55.33;9.46
7986;BME280;4038;42.612;23.066;2023-07-13T11:35:34;93221.75;;;55.69;9.96
7986;BME280;4038;42.612;23.066;2023-07-13T11:38:02;93225.44;;;53.42;11.81
7986;BME280;4038;42.612;23.066;2023-07-13T11:40:29;93225.00;;;54.54;10.33
7986;BME280;4038;42.612;23.066;2023-07-13T11:43:02;93211.66;;;53.38;10.93
7986;BME280;4038;42.612;23.066;2023-07-13T11:45:32;93235.50;;;52.35;10.45
7986;BME280;4038;42.612;23.066;2023-07-13T11:47:57;93220.63;;;53.32;10.50
7986;BME280;4038;42.612;23.066;2023-07-13T11:50:25;93220.03;;;53.51;10.58
7986;BME280;4038;42.612;23.066;2023-07-13T11:52:52;93220.69;;;54.13;9.98
7986;BME280;4038;42.612;23.066;2023-07-13T11:55:20;93212.25;;;55.99;8.75
7986;BME280;4038;42.612;23.066;2023-07-13T11:58:00;93209.56;;;53.35;10.25
7986;BME280;4038;42.612;23.066;2023-07-13T12:00:29;93202.88;;;55.28;9.14
7986;BME280;4038;42.612;23.066;2023-07-13T12:02:59;93211.22;;;55.40;9.59
7986;BME280;4038;42.612;23.066;2023-07-13T12:05:26;93212.09;;;56.35;8.82
7986;BME280;4038;42.612;23.066;2023-07-13T12:07:52;93192.56;;;55.62;9.02
7986;BME280;4038;42.612;23.066;2023-07-13T12:10:27;93204.56;;;55.23;8.75
7986;BME280;4038;42.612;23.066;2023-07-13T12:13:03;93205.50;;;52.82;9.92
7986;BME280;4038;42.612;23.066;2023-07-13T12:18:00;93189.34;;;54.08;9.89
7986;BME280;4038;42.612;23.066;2023-07-13T12:20:33;93194.47;;;54.47;9.62
7986;BME280;4038;42.612;23.066;2023-07-13T12:23:01;93191.63;;;56.48;9.95
7986;BME280;4038;42.612;23.066;2023-07-13T12:25:28;93189.16;;;56.69;9.65
7986;BME280;4038;42.612;23.066;2023-07-13T12:27:55;93178.41;;;54.63;11.23
7986;BME280;4038;42.612;23.066;2023-07-13T12:35:24;93181.50;;;54.02;11.04
7986;BME280;4038;42.612;23.066;2023-07-13T12:37:51;93180.44;;;53.52;11.05
7986;BME280;4038;42.612;23.066;2023-07-13T12:40:20;93169.56;;;54.46;10.75
7986;BME280;4038;42.612;23.066;2023-07-13T12:42:48;93172.06;;;51.80;11.12
7986;BME280;4038;42.612;23.066;2023-07-13T12:45:25;93171.97;;;53.83;10.26
7986;BME280;4038;42.612;23.066;2023-07-13T12:47:58;93168.75;;;52.64;11.80
7986;BME280;4038;42.612;23.066;2023-07-13T12:50:30;93159.81;;;54.51;9.65
7986;BME280;4038;42.612;23.066;2023-07-13T12:53:01;93158.06;;;55.94;9.21
7986;BME280;4038;42.612;23.066;2023-07-13T12:55:29;93151.09;;;54.85;10.07
7986;BME280;4038;42.612;23.066;2023-07-13T12:57:58;93161.09;;;54.73;10.37
7986;BME280;4038;42.612;23.066;2023-07-13T13:00:28;93159.44;;;52.81;11.63
7986;BME280;4038;42.612;23.066;2023-07-13T13:02:58;93152.63;;;53.90;10.93
7986;BME280;4038;42.612;23.066;2023-07-13T13:05:29;93141.53;;;55.20;10.65
7986;BME280;4038;42.612;23.066;2023-07-13T13:07:55;93134.53;;;53.65;10.74
7986;BME280;4038;42.612;23.066;2023-07-13T13:10:21;93146.56;;;53.57;10.58
7986;BME280;4038;42.612;23.066;2023-07-13T13:12:46;93132.13;;;52.20;11.70
7986;BME280;4038;42.612;23.066;2023-07-13T13:15:12;93137.19;;;51.22;12.62
7986;BME280;4038;42.612;23.066;2023-07-13T13:17:38;93144.75;;;51.11;11.99
7986;BME280;4038;42.612;23.066;2023-07-13T13:20:15;93135.84;;;53.08;11.46
7986;BME280;4038;42.612;23.066;2023-07-13T13:22:41;93136.38;;;51.75;11.37
7986;BME280;4038;42.612;23.066;2023-07-13T13:25:10;93129.53;;;51.85;11.84
7986;BME280;4038;42.612;23.066;2023-07-13T13:27:36;93133.22;;;53.99;10.49
7986;BME280;4038;42.612;23.066;2023-07-13T13:30:02;93130.25;;;54.74;10.18
7986;BME280;4038;42.612;23.066;2023-07-13T13:32:28;93132.56;;;53.97;10.75
7986;BME280;4038;42.612;23.066;2023-07-13T13:34:53;93128.47;;;53.90;10.61
7986;BME280;4038;42.612;23.066;2023-07-13T13:37:21;93130.75;;;52.17;11.90
7986;BME280;4038;42.612;23.066;2023-07-13T13:39:48;93119.31;;;51.59;12.20
7986;BME280;4038;42.612;23.066;2023-07-13T13:42:13;93129.03;;;51.51;12.03
7986;BME280;4038;42.612;23.066;2023-07-13T13:44:39;93130.28;;;52.77;12.08
7986;BME280;4038;42.612;23.066;2023-07-13T13:47:30;93128.09;;;53.39;11.58
7986;BME280;4038;42.612;23.066;2023-07-13T13:49:56;93118.41;;;54.03;10.87
7986;BME280;4038;42.612;23.066;2023-07-13T13:52:23;93130.34;;;49.11;13.62
7986;BME280;4038;42.612;23.066;2023-07-13T13:54:48;93124.09;;;51.96;12.27
7986;BME280;4038;42.612;23.066;2023-07-13T13:57:14;93127.38;;;52.31;12.28
7986;BME280;4038;42.612;23.066;2023-07-13T13:59:39;93112.28;;;52.45;11.86
7986;BME280;4038;42.612;23.066;2023-07-13T14:02:22;93123.50;;;51.91;12.41